Time;durP1;ratioP1;P1;durP2;ratioP2;P2;SDS_P1;SDS_P2;PMS_P1;PMS_P2;Temp;Humidity;BMP_temperature;BMP_pressure;BME280_temperature;BME280_humidity;BME280_pressure;Samples;Min_cycle;Max_cycle;Signal;HPM_P1;HPM_P2
2022/07/15 00:00:34;;;;;;;5.43;3.33;;;;;;;25.35;40.47;102411.00;6188060;23;20001;-76
2022/07/15 00:03:00;;;;;;;9.75;3.75;;;;;;;25.17;40.66;102415.50;6186968;23;20055;-76
2022/07/15 00:05:26;;;;;;;6.43;3.08;;;;;;;25.26;40.73;102406.84;6186582;23;20001;-76
2022/07/15 00:07:52;;;;;;;9.70;3.78;;;;;;;25.30;40.48;102414.09;6186568;23;20001;-78
2022/07/15 00:10:23;;;;;;;6.88;3.08;;;;;;;25.29;40.63;102400.50;6186379;23;20447;-76
2022/07/15 00:12:51;;;;;;;8.02;3.55;;;;;;;25.53;39.98;102402.88;6186674;23;20001;-76
2022/07/15 00:15:20;;;;;;;6.35;3.03;;;;;;;25.27;40.55;102391.69;6186671;23;20001;-76
2022/07/15 00:17:46;;;;;;;7.68;3.08;;;;;;;25.20;40.79;102397.16;6187044;23;20428;-76
2022/07/15 00:20:13;;;;;;;6.22;3.63;;;;;;;25.22;40.49;102387.19;6186679;23;20005;-95
2022/07/15 00:22:39;;;;;;;7.35;3.25;;;;;;;25.22;40.87;102394.78;6186289;23;20001;-77
2022/07/15 00:25:05;;;;;;;6.90;3.25;;;;;;;25.22;40.75;102401.19;6186573;23;20364;-76
2022/07/15 00:27:31;;;;;;;9.23;4.20;;;;;;;25.13;40.86;102395.03;6186259;23;20063;-93
2022/07/15 00:29:57;;;;;;;7.15;3.67;;;;;;;25.35;40.34;102385.81;6185139;23;20009;-77
2022/07/15 00:32:22;;;;;;;6.80;3.80;;;;;;;25.24;40.67;102393.25;6161411;23;20017;-77
2022/07/15 00:34:50;;;;;;;9.63;3.83;;;;;;;25.34;40.08;102378.63;6160305;23;20428;-76
2022/07/15 00:37:17;;;;;;;5.47;2.63;;;;;;;25.19;40.88;102379.56;6186221;23;20008;-77
2022/07/15 00:39:43;;;;;;;7.45;3.55;;;;;;;25.31;40.22;102364.56;6186812;23;20004;-77
2022/07/15 00:42:43;;;;;;;6.88;3.88;;;;;;;25.38;39.95;102371.06;6186935;23;20009;-77
2022/07/15 00:44:59;;;;;;;10.43;3.67;;;;;;;25.36;40.26;102373.44;6185977;23;20005;-77
2022/07/15 00:47:24;;;;;;;7.80;4.07;;;;;;;25.25;40.55;102366.88;6160528;23;20005;-86
2022/07/15 00:49:50;;;;;;;5.93;3.22;;;;;;;25.30;40.35;102366.53;6186292;23;20079;-92
2022/07/15 00:52:19;;;;;;;7.40;3.60;;;;;;;25.11;40.68;102370.25;6186470;23;20009;-91
2022/07/15 00:54:46;;;;;;;5.13;3.60;;;;;;;25.03;40.84;102370.47;6187232;23;20008;-95
2022/07/15 00:57:12;;;;;;;4.85;3.25;;;;;;;25.20;40.25;102369.97;6186830;23;20023;-76
2022/07/15 00:59:38;;;;;;;7.90;4.15;;;;;;;25.11;40.49;102358.25;6186136;23;20488;-83
2022/07/15 01:02:05;;;;;;;5.95;3.17;;;;;;;25.23;40.24;102366.44;6159811;23;20012;-77
2022/07/15 01:04:33;;;;;;;6.75;4.07;;;;;;;25.03;40.83;102364.88;6186790;23;20011;-96
2022/07/15 01:06:59;;;;;;;10.55;3.80;;;;;;;25.12;40.21;102357.06;6186449;23;20001;-93
2022/07/15 01:09:24;;;;;;;6.65;3.15;;;;;;;25.07;40.34;102354.56;6186714;23;20008;-85
2022/07/15 01:11:50;;;;;;;8.50;3.20;;;;;;;24.99;40.63;102355.59;6160650;23;20084;-74
2022/07/15 01:14:15;;;;;;;7.55;3.70;;;;;;;24.99;40.64;102355.59;6186570;23;20458;-74
2022/07/15 01:16:41;;;;;;;6.65;3.78;;;;;;;25.01;40.24;102347.66;6186429;23;20099;-74
2022/07/15 01:19:07;;;;;;;7.00;3.25;;;;;;;24.76;40.67;102350.00;6186407;23;20416;-92
2022/07/15 01:21:32;;;;;;;6.35;2.95;;;;;;;24.84;40.67;102346.16;6186599;23;20005;-91
2022/07/15 01:23:58;;;;;;;10.75;3.88;;;;;;;24.81;40.57;102342.13;6185835;23;20052;-74
2022/07/15 01:26:24;;;;;;;7.68;3.90;;;;;;;24.83;40.79;102338.97;6185773;23;20088;-76
2022/07/15 01:28:49;;;;;;;8.80;3.65;;;;;;;24.88;40.42;102331.06;6185928;23;20005;-74
2022/07/15 01:31:15;;;;;;;6.32;3.28;;;;;;;24.92;40.52;102331.13;6159176;23;20009;-74
2022/07/15 01:33:41;;;;;;;9.13;4.85;;;;;;;24.82;40.42;102328.97;6185603;23;20005;-73
2022/07/15 01:36:07;;;;;;;5.90;2.97;;;;;;;24.82;40.65;102326.97;6185915;23;20379;-74
2022/07/15 01:38:33;;;;;;;9.20;3.33;;;;;;;24.79;40.43;102319.34;6185776;23;20076;-74
2022/07/15 01:40:58;;;;;;;9.27;3.38;;;;;;;24.78;40.40;102326.09;6186032;23;20352;-74
2022/07/15 01:43:24;;;;;;;7.97;3.28;;;;;;;24.82;40.33;102318.59;6185417;23;20032;-74
2022/07/15 01:45:49;;;;;;;5.93;3.33;;;;;;;24.67;40.61;102313.91;6185085;23;20005;-76
2022/07/15 01:51:00;;;;;;;5.38;3.72;;;;;;;24.52;40.96;102312.03;6185471;23;20099;-83
2022/07/15 01:53:27;;;;;;;5.25;3.72;;;;;;;24.21;41.71;102308.22;6185858;23;20063;-75
2022/07/15 01:55:53;;;;;;;7.82;3.95;;;;;;;24.37;41.44;102304.56;6185743;23;20078;-92
2022/07/15 01:58:19;;;;;;;5.63;3.90;;;;;;;24.28;41.89;102307.56;6186102;23;20005;-75
2022/07/15 02:00:45;;;;;;;11.00;4.60;;;;;;;24.25;41.87;102303.50;6185663;23;20025;-74
2022/07/15 02:03:10;;;;;;;9.45;3.90;;;;;;;24.02;42.72;102305.44;6185961;23;20017;-74
2022/07/15 02:05:36;;;;;;;7.45;4.05;;;;;;;23.97;43.20;102294.59;6185025;23;20005;-74
2022/07/15 02:08:03;;;;;;;4.88;3.85;;;;;;;24.13;42.48;102292.50;6185510;23;20011;-74
2022/07/15 02:10:39;;;;;;;7.40;3.78;;;;;;;24.08;42.83;102298.38;6185210;23;20004;-74
2022/07/15 02:13:14;;;;;;;6.38;3.80;;;;;;;24.01;43.27;102298.25;6185357;23;20032;-76
2022/07/15 02:15:40;;;;;;;7.15;4.13;;;;;;;23.94;43.36;102304.47;6185442;23;20005;-74
2022/07/15 02:18:07;;;;;;;9.88;4.40;;;;;;;24.15;42.99;102295.75;6185175;23;20001;-89
2022/07/15 02:20:33;;;;;;;6.57;3.92;;;;;;;23.85;43.75;102300.28;6185759;23;20047;-75
2022/07/15 02:23:01;;;;;;;11.60;4.45;;;;;;;24.05;43.68;102293.56;6185130;23;20005;-74
2022/07/15 02:25:29;;;;;;;8.65;4.47;;;;;;;24.12;43.36;102293.69;6185254;23;20391;-85
2022/07/15 02:27:57;;;;;;;7.35;3.88;;;;;;;24.01;43.44;102290.66;6185716;23;20012;-74
2022/07/15 02:30:29;;;;;;;6.65;3.30;;;;;;;23.93;44.01;102296.47;6185345;23;20087;-74
2022/07/15 02:32:58;;;;;;;9.15;3.83;;;;;;;23.99;43.76;102284.66;6185131;23;20009;-75
2022/07/15 02:35:24;;;;;;;6.30;4.10;;;;;;;23.71;44.21;102290.44;6159718;23;20420;-80
2022/07/15 02:37:50;;;;;;;6.22;3.72;;;;;;;24.02;43.87;102283.09;6184912;23;20001;-74
2022/07/15 02:40:17;;;;;;;6.43;4.07;;;;;;;23.82;44.17;102295.47;6185155;23;20028;-74
2022/07/15 02:42:53;;;;;;;7.53;4.25;;;;;;;23.69;44.75;102295.59;6185299;23;20519;-89
2022/07/15 02:45:20;;;;;;;7.93;4.95;;;;;;;23.55;45.03;102292.44;6185142;23;20005;-74
2022/07/15 02:47:46;;;;;;;7.15;3.45;;;;;;;23.70;44.63;102296.38;6158995;23;20005;-74
2022/07/15 02:50:13;;;;;;;7.03;3.95;;;;;;;23.72;44.73;102297.63;6185238;23;20404;-74
2022/07/15 02:52:38;;;;;;;11.02;4.35;;;;;;;23.83;44.56;102291.50;6185133;23;20005;-74
2022/07/15 02:55:05;;;;;;;5.78;3.67;;;;;;;23.96;43.84;102290.97;6185324;23;20359;-74
2022/07/15 02:57:30;;;;;;;7.40;3.88;;;;;;;24.02;43.47;102283.91;6185750;23;19997;-93
2022/07/15 02:59:56;;;;;;;7.68;4.47;;;;;;;23.94;44.05;102287.72;6185830;23;20044;-93
2022/07/15 03:02:22;;;;;;;6.90;4.47;;;;;;;23.98;43.85;102282.25;6185782;23;20368;-74
2022/07/15 03:04:47;;;;;;;11.20;4.00;;;;;;;23.95;44.13;102274.59;6186114;23;20068;-74
2022/07/15 03:07:13;;;;;;;8.35;4.03;;;;;;;24.04;43.97;102281.56;6185612;23;20305;-93
2022/07/15 03:09:39;;;;;;;6.55;4.53;;;;;;;24.01;43.86;102275.91;6185617;23;20001;-92
2022/07/15 03:12:05;;;;;;;7.07;4.15;;;;;;;24.12;43.58;102276.94;6185180;23;20488;-77
2022/07/15 03:14:31;;;;;;;7.50;3.72;;;;;;;24.05;44.14;102274.00;6185664;23;20375;-75
2022/07/15 03:16:56;;;;;;;7.18;4.72;;;;;;;24.27;43.28;102278.84;6184851;23;19997;-74
2022/07/15 03:19:22;;;;;;;6.45;3.78;;;;;;;24.12;43.85;102273.34;6185816;23;20004;-93
2022/07/15 03:21:48;;;;;;;5.82;3.78;;;;;;;24.30;43.34;102269.69;6185149;23;20005;-82
2022/07/15 03:24:14;;;;;;;9.02;4.40;;;;;;;24.15;43.82;102276.19;6187186;23;20375;-74
2022/07/15 03:26:40;;;;;;;8.88;4.35;;;;;;;24.14;43.99;102269.00;6187065;23;20005;-74
2022/07/15 03:29:06;;;;;;;20.55;4.85;;;;;;;24.06;44.24;102272.81;6187721;23;20001;-74
2022/07/15 03:31:32;;;;;;;5.75;3.88;;;;;;;24.06;44.16;102267.25;6185413;23;20005;-74
2022/07/15 03:33:57;;;;;;;7.50;4.03;;;;;;;24.13;44.15;102272.97;6186631;23;20001;-90
2022/07/15 03:36:24;;;;;;;6.03;3.85;;;;;;;24.24;43.59;102267.56;6187172;23;20001;-74
2022/07/15 03:38:51;;;;;;;6.20;3.60;;;;;;;23.99;44.47;102264.31;6160777;23;20087;-74
2022/07/15 03:41:18;;;;;;;8.18;3.95;;;;;;;24.04;43.98;102275.19;6187070;23;20005;-75
2022/07/15 03:43:44;;;;;;;8.23;3.75;;;;;;;24.01;44.18;102268.34;6186933;23;20012;-74
2022/07/15 03:46:09;;;;;;;7.88;4.30;;;;;;;23.97;44.26;102266.66;6186728;23;20005;-74
2022/07/15 03:48:35;;;;;;;7.35;4.40;;;;;;;24.13;43.67;102267.38;6186234;23;20055;-74
2022/07/15 03:51:00;;;;;;;4.80;3.78;;;;;;;24.03;43.96;102265.16;6186351;23;20005;-74
2022/07/15 03:53:26;;;;;;;7.65;3.58;;;;;;;24.16;43.59;102269.44;6186648;23;20428;-74
2022/07/15 03:55:52;;;;;;;12.95;4.45;;;;;;;24.14;43.63;102271.78;6186468;23;20004;-74
2022/07/15 03:58:17;;;;;;;10.82;4.55;;;;;;;24.27;43.82;102275.22;6160411;23;20005;-74
2022/07/15 04:00:43;;;;;;;11.77;4.28;;;;;;;24.29;43.71;102265.31;6186272;23;20031;-92
2022/07/15 04:03:09;;;;;;;8.30;3.70;;;;;;;24.38;43.06;102267.06;6185939;23;20096;-75
2022/07/15 04:05:34;;;;;;;5.07;3.42;;;;;;;24.30;43.37;102261.31;6186204;23;20009;-74
2022/07/15 04:08:00;;;;;;;7.20;4.43;;;;;;;24.40;43.30;102256.34;6186842;23;20367;-75
2022/07/15 04:10:26;;;;;;;8.43;3.85;;;;;;;24.43;43.44;102252.81;6187145;23;20005;-86
2022/07/15 04:12:51;;;;;;;8.93;4.55;;;;;;;24.25;43.81;102249.63;6187389;23;20395;-92
2022/07/15 04:15:17;;;;;;;7.90;3.92;;;;;;;24.38;43.16;102256.72;6187201;23;20012;-91
2022/07/15 04:17:43;;;;;;;7.15;3.88;;;;;;;24.07;44.17;102252.09;6186364;23;20516;-74
2022/07/15 04:20:09;;;;;;;10.55;3.97;;;;;;;24.23;43.82;102255.59;6186394;23;20402;-93
2022/07/15 04:22:46;;;;;;;8.02;4.20;;;;;;;24.23;44.00;102263.97;6186937;23;20005;-74
2022/07/15 04:25:15;;;;;;;7.03;3.90;;;;;;;24.15;44.09;102259.44;6187048;23;20376;-93
2022/07/15 04:27:42;;;;;;;6.57;3.75;;;;;;;24.15;44.47;102262.22;6186901;23;20420;-91
2022/07/15 04:30:08;;;;;;;10.75;4.68;;;;;;;24.16;44.34;102265.81;6186966;23;20001;-74
2022/07/15 04:32:34;;;;;;;7.32;3.78;;;;;;;23.93;45.11;102255.41;6186797;23;20009;-74
2022/07/15 04:35:00;;;;;;;6.75;4.00;;;;;;;24.15;44.72;102267.00;6186797;23;20076;-75
2022/07/15 04:37:25;;;;;;;6.30;3.97;;;;;;;24.33;44.01;102263.44;6186834;23;20059;-74
2022/07/15 04:39:51;;;;;;;8.90;3.30;;;;;;;24.26;44.49;102256.88;6161263;23;20056;-74
2022/07/15 04:42:16;;;;;;;5.70;3.60;;;;;;;24.19;44.68;102253.94;6186585;23;20005;-74
2022/07/15 04:44:42;;;;;;;7.95;4.03;;;;;;;24.29;44.25;102242.94;6185981;23;19997;-89
2022/07/15 04:47:08;;;;;;;6.95;4.00;;;;;;;24.23;44.23;102233.25;6185228;23;20020;-78
2022/07/15 04:52:17;;;;;;;9.05;4.57;;;;;;;24.05;45.01;102223.75;6186393;23;20041;-74
2022/07/15 04:54:43;;;;;;;9.23;3.88;;;;;;;23.95;45.07;102224.34;6186099;23;20001;-74
2022/07/15 04:57:11;;;;;;;8.48;3.85;;;;;;;24.08;45.01;102221.00;6186180;23;20033;-75
2022/07/15 04:59:37;;;;;;;4.60;3.15;;;;;;;24.01;45.32;102231.22;6186631;23;20005;-89
2022/07/15 05:02:03;;;;;;;5.45;3.60;;;;;;;23.98;45.33;102224.41;6185962;23;20016;-74
2022/07/15 05:04:29;;;;;;;7.40;3.88;;;;;;;23.87;45.55;102231.75;6186968;23;20005;-74
2022/07/15 05:06:56;;;;;;;9.10;3.38;;;;;;;24.06;44.87;102234.53;6185924;23;20004;-74
2022/07/15 05:09:22;;;;;;;7.65;3.60;;;;;;;24.10;44.77;102234.59;6186086;23;20001;-74
2022/07/15 05:11:47;;;;;;;13.63;4.50;;;;;;;23.68;46.31;102235.38;6186441;23;20012;-92
2022/07/15 05:14:13;;;;;;;5.82;3.60;;;;;;;23.84;45.62;102232.50;6186383;23;20031;-74
2022/07/15 05:16:39;;;;;;;9.55;4.10;;;;;;;23.91;45.90;102237.44;6186308;23;20121;-74
2022/07/15 05:19:04;;;;;;;13.38;3.92;;;;;;;23.75;46.24;102224.34;6186147;23;20009;-79
2022/07/15 05:21:30;;;;;;;9.25;3.22;;;;;;;24.08;45.54;102228.59;6185584;23;20424;-74
2022/07/15 05:23:56;;;;;;;9.48;3.95;;;;;;;24.06;45.55;102228.16;6186092;23;20089;-81
2022/07/15 05:26:21;;;;;;;5.78;3.35;;;;;;;24.00;45.39;102230.44;6186051;23;20012;-93
2022/07/15 05:28:47;;;;;;;10.07;3.92;;;;;;;24.08;45.25;102225.78;6185730;23;20000;-74
2022/07/15 05:31:12;;;;;;;6.07;3.17;;;;;;;23.96;45.99;102234.34;6185620;23;20012;-74
2022/07/15 05:33:39;;;;;;;4.53;3.05;;;;;;;24.14;45.38;102235.50;6185860;23;20005;-75
2022/07/15 05:36:04;;;;;;;7.68;3.63;;;;;;;24.03;45.70;102237.25;6186076;23;20091;-77
2022/07/15 05:38:30;;;;;;;5.05;3.15;;;;;;;24.06;45.75;102233.75;6186675;23;20028;-74
2022/07/15 05:40:56;;;;;;;7.25;3.92;;;;;;;24.16;45.49;102230.34;6186380;23;20001;-74
2022/07/15 05:43:23;;;;;;;5.05;3.30;;;;;;;24.12;45.68;102231.47;6186791;23;20008;-92
2022/07/15 05:45:49;;;;;;;6.30;3.22;;;;;;;24.00;46.12;102235.22;6188672;23;20083;-89
2022/07/15 05:48:14;;;;;;;11.35;4.40;;;;;;;24.06;46.12;102237.34;6187835;23;20475;-90
2022/07/15 05:50:40;;;;;;;6.35;2.88;;;;;;;23.83;46.64;102242.06;6187857;23;20525;-74
2022/07/15 05:53:05;;;;;;;4.57;2.85;;;;;;;24.12;45.85;102251.81;6187237;23;20323;-75
2022/07/15 05:55:31;;;;;;;7.75;3.60;;;;;;;24.15;45.58;102242.69;6186012;23;20340;-74
2022/07/15 05:57:57;;;;;;;6.63;2.63;;;;;;;24.22;45.58;102245.59;6186702;23;20191;-74
2022/07/15 06:00:23;;;;;;;8.68;3.72;;;;;;;24.31;45.48;102239.78;6185922;23;20008;-74
2022/07/15 06:02:48;;;;;;;6.47;3.10;;;;;;;24.42;45.07;102240.84;6184885;23;20021;-74
2022/07/15 06:05:14;;;;;;;6.25;3.30;;;;;;;24.44;45.06;102249.63;6188359;23;20013;-87
2022/07/15 06:07:41;;;;;;;6.65;3.08;;;;;;;24.48;45.37;102244.09;6190729;23;20033;-90
2022/07/15 06:10:09;;;;;;;6.13;3.10;;;;;;;24.63;44.76;102245.97;6187898;23;20060;-77
2022/07/15 06:12:34;;;;;;;9.40;3.80;;;;;;;24.61;44.74;102243.53;6159793;23;20008;-76
2022/07/15 06:15:00;;;;;;;6.25;2.95;;;;;;;24.44;45.16;102232.88;6184779;23;20435;-76
2022/07/15 06:17:26;;;;;;;5.78;2.85;;;;;;;24.46;45.17;102238.09;6185166;23;20435;-76
2022/07/15 06:19:51;;;;;;;16.45;3.80;;;;;;;24.75;44.51;102244.97;6185319;23;20008;-78
2022/07/15 06:22:17;;;;;;;6.05;2.78;;;;;;;24.73;45.26;102233.38;6184967;23;20076;-75
2022/07/15 06:24:43;;;;;;;5.20;2.67;;;;;;;24.65;44.83;102240.81;6185006;23;20008;-75
2022/07/15 06:27:08;;;;;;;4.82;3.05;;;;;;;24.73;44.81;102239.75;6186171;23;20001;-77
2022/07/15 06:29:34;;;;;;;5.82;2.72;;;;;;;24.68;45.25;102247.66;6184607;23;20005;-76
2022/07/15 06:31:59;;;;;;;3.47;2.50;;;;;;;24.95;44.57;102248.50;6185580;23;20011;-75
2022/07/15 06:34:25;;;;;;;5.47;2.70;;;;;;;25.06;44.47;102252.28;6184951;23;20376;-77
2022/07/15 06:36:50;;;;;;;6.78;2.25;;;;;;;25.01;44.68;102244.97;6185376;23;20447;-87
2022/07/15 06:39:16;;;;;;;4.68;2.53;;;;;;;24.97;44.48;102243.34;6187385;23;20028;-76
2022/07/15 06:41:42;;;;;;;4.75;1.90;;;;;;;24.63;45.15;102234.78;6158906;23;20080;-84
2022/07/15 06:44:07;;;;;;;5.90;2.35;;;;;;;24.96;45.04;102241.72;6185180;23;20083;-76
2022/07/15 06:46:33;;;;;;;5.32;2.25;;;;;;;25.27;44.17;102235.84;6186448;23;20463;-92
2022/07/15 06:48:59;;;;;;;4.55;2.22;;;;;;;25.40;44.22;102228.81;6187522;23;20079;-93
2022/07/15 06:51:25;;;;;;;11.00;2.92;;;;;;;25.38;43.80;102231.19;6186765;23;20309;-90
2022/07/15 06:53:50;;;;;;;5.70;2.30;;;;;;;25.51;43.07;102228.97;6186670;23;20008;-93
2022/07/15 06:56:16;;;;;;;8.32;2.95;;;;;;;25.45;43.12;102227.69;6186918;23;20005;-75
2022/07/15 06:58:41;;;;;;;6.78;2.65;;;;;;;25.42;42.97;102231.25;6187932;23;20072;-89
2022/07/15 07:01:07;;;;;;;6.10;2.30;;;;;;;25.83;41.91;102234.97;6187528;23;20091;-75
2022/07/15 07:03:33;;;;;;;4.70;2.05;;;;;;;25.66;42.17;102238.34;6187442;23;20009;-94
2022/07/15 07:05:58;;;;;;;5.72;2.13;;;;;;;25.52;42.35;102233.38;6160925;23;20068;-95
2022/07/15 07:08:25;;;;;;;3.95;1.90;;;;;;;25.81;41.59;102233.75;6161727;23;20009;-80
2022/07/15 07:10:51;;;;;;;3.75;1.80;;;;;;;25.45;42.14;102231.28;6186120;23;20391;-85
2022/07/15 07:13:16;;;;;;;5.40;1.67;;;;;;;25.65;41.81;102242.34;6160988;23;20040;-75
2022/07/15 07:15:42;;;;;;;2.70;1.80;;;;;;;25.75;41.67;102241.69;6184990;23;20036;-74
2022/07/15 07:18:07;;;;;;;3.13;1.73;;;;;;;25.57;42.04;102240.63;6186255;23;20340;-75
2022/07/15 07:20:33;;;;;;;5.30;2.92;;;;;;;26.18;41.04;102247.78;6186576;23;20005;-74
2022/07/15 07:22:58;;;;;;;4.68;1.80;;;;;;;26.18;41.48;102250.59;6187587;23;20124;-75
2022/07/15 07:25:24;;;;;;;8.00;2.70;;;;;;;26.29;40.79;102249.50;6189040;23;20009;-81
2022/07/15 07:27:50;;;;;;;3.67;1.88;;;;;;;26.06;41.23;102262.03;6186590;23;20005;-76
2022/07/15 07:30:15;;;;;;;4.95;2.00;;;;;;;25.91;41.41;102264.69;6187101;23;20355;-76
2022/07/15 07:32:41;;;;;;;3.50;1.80;;;;;;;26.10;40.86;102248.91;6161331;23;20031;-90
2022/07/15 07:35:07;;;;;;;3.13;1.70;;;;;;;26.03;41.06;102246.03;6161373;23;20439;-89
2022/07/15 07:37:38;;;;;;;4.68;2.42;;;;;;;26.25;40.69;102254.28;6161962;23;20008;-92
2022/07/15 07:40:05;;;;;;;4.25;2.05;;;;;;;26.47;40.23;102255.31;6187136;23;20020;-83
2022/07/15 07:42:30;;;;;;;12.00;2.33;;;;;;;26.73;39.62;102253.53;6187257;23;20012;-92
2022/07/15 07:44:56;;;;;;;2.45;1.45;;;;;;;26.83;39.51;102270.47;6161027;23;20335;-77
2022/07/15 07:47:22;;;;;;;5.63;2.20;;;;;;;26.96;39.00;102262.53;6161390;23;20483;-91
2022/07/15 07:49:48;;;;;;;3.03;1.67;;;;;;;26.62;39.26;102264.66;6187218;23;20005;-92
2022/07/15 07:52:15;;;;;;;3.92;1.48;;;;;;;26.72;38.73;102251.94;6187685;23;20008;-94
2022/07/15 07:54:41;;;;;;;6.30;2.55;;;;;;;27.19;38.00;102258.72;6160960;23;20424;-91
2022/07/15 07:57:06;;;;;;;4.97;1.80;;;;;;;27.35;37.95;102265.63;6160123;23;20005;-74
2022/07/15 07:59:32;;;;;;;8.50;2.10;;;;;;;27.49;37.62;102261.28;6186770;23;20008;-76
2022/07/15 08:01:58;;;;;;;5.53;1.75;;;;;;;27.88;37.07;102267.91;6186909;23;20004;-85
2022/07/15 08:04:24;;;;;;;8.00;1.88;;;;;;;27.89;37.09;102254.72;6186366;23;20379;-76
2022/07/15 08:06:50;;;;;;;5.70;2.45;;;;;;;27.90;36.91;102261.94;6186201;23;20079;-80
2022/07/15 08:09:16;;;;;;;14.77;2.50;;;;;;;27.71;36.93;102263.03;6185316;23;20076;-75
2022/07/15 08:11:42;;;;;;;4.18;1.38;;;;;;;27.85;36.77;102263.09;6159951;23;20424;-75
2022/07/15 08:14:08;;;;;;;4.80;1.48;;;;;;;27.86;36.59;102266.72;6186655;23;20062;-87
2022/07/15 08:16:34;;;;;;;1.63;1.00;;;;;;;27.91;36.51;102260.72;6186744;23;20072;-76
2022/07/15 08:18:59;;;;;;;3.22;1.27;;;;;;;27.94;36.34;102257.09;6186384;23;20001;-92
2022/07/15 08:21:25;;;;;;;4.03;1.27;;;;;;;27.92;36.53;102257.50;6160230;23;20036;-93
2022/07/15 08:23:51;;;;;;;2.60;1.38;;;;;;;27.89;36.34;102260.31;6185902;23;20011;-76
2022/07/15 08:26:23;;;;;;;3.40;1.10;;;;;;;27.75;36.35;102258.25;6183372;23;20005;-75
2022/07/15 08:28:50;;;;;;;1.90;1.05;;;;;;;27.84;36.28;102255.88;6186335;23;20376;-75
2022/07/15 08:31:18;;;;;;;2.53;0.73;;;;;;;27.76;36.29;102264.69;6186278;23;20005;-75
2022/07/15 08:33:45;;;;;;;0.85;0.77;;;;;;;27.74;35.95;102262.28;6186363;23;20040;-75
2022/07/15 08:36:11;;;;;;;11.15;1.90;;;;;;;27.82;36.03;102258.28;6186337;23;20001;-76
2022/07/15 08:38:39;;;;;;;3.88;1.50;;;;;;;27.70;36.18;102255.81;6185450;23;20001;-92
2022/07/15 08:41:08;;;;;;;2.67;1.30;;;;;;;27.64;36.18;102258.16;6186429;23;20009;-80
2022/07/15 08:43:34;;;;;;;1.70;1.27;;;;;;;27.69;35.97;102265.44;6187355;23;20005;-77
2022/07/15 08:46:02;;;;;;;8.80;1.70;;;;;;;27.37;36.77;102268.06;6160163;23;20087;-77
2022/07/15 08:48:30;;;;;;;4.68;1.00;;;;;;;27.88;35.95;102262.28;6184012;23;20001;-82
2022/07/15 08:51:00;;;;;;;5.05;1.50;;;;;;;27.91;35.68;102249.47;6184260;23;20024;-80
2022/07/15 08:53:27;;;;;;;4.60;1.58;;;;;;;27.94;35.57;102254.31;6153722;23;20012;-80
2022/07/15 08:55:55;;;;;;;2.65;1.30;;;;;;;28.00;35.43;102251.91;6154288;23;20012;-88
2022/07/15 08:58:22;;;;;;;18.27;3.22;;;;;;;27.98;35.53;102259.94;6156696;23;20036;-85
2022/07/15 09:00:49;;;;;;;3.55;1.10;;;;;;;28.04;35.48;102267.59;6183483;23;20490;-87
2022/07/15 09:03:15;;;;;;;1.73;1.20;;;;;;;28.08;35.25;102259.97;6184212;23;20029;-84
2022/07/15 09:05:41;;;;;;;4.03;1.58;;;;;;;27.91;35.26;102257.91;6182841;23;20004;-84
2022/07/15 09:08:16;;;;;;;2.67;1.33;;;;;;;27.87;35.51;102262.69;6153961;23;20017;-84
2022/07/15 09:10:52;;;;;;;4.85;1.30;;;;;;;28.17;35.37;102262.38;6182168;23;20076;-81
2022/07/15 09:13:34;;;;;;;3.35;1.50;;;;;;;28.47;34.94;102256.44;6181302;23;20440;-83
2022/07/15 09:16:04;;;;;;;3.08;1.40;;;;;;;28.31;35.22;102256.03;6152798;23;20583;-78
2022/07/15 09:18:33;;;;;;;3.60;1.40;;;;;;;28.02;35.73;102272.78;6177136;23;20087;-80
2022/07/15 09:20:59;;;;;;;2.47;1.33;;;;;;;28.15;35.64;102268.41;6177024;23;20531;-79
2022/07/15 09:23:31;;;;;;;1.48;0.90;;;;;;;28.26;35.52;102267.63;6176965;23;20009;-80
2022/07/15 09:26:26;;;;;;;4.85;1.38;;;;;;;28.30;35.28;102274.09;6177905;23;20043;-79
2022/07/15 09:28:53;;;;;;;3.25;1.10;;;;;;;28.34;35.31;102277.72;6175352;23;20015;-80
2022/07/15 09:34:24;;;;;;;1.52;1.00;;;;;;;28.55;34.53;102288.19;6182675;23;20020;-81
2022/07/15 09:36:54;;;;;;;1.63;1.05;;;;;;;28.65;34.47;102274.16;6182874;23;20072;-82
2022/07/15 09:39:24;;;;;;;4.40;1.17;;;;;;;28.53;34.22;102284.97;6155689;23;20328;-82
2022/07/15 09:41:51;;;;;;;4.10;1.38;;;;;;;28.60;34.12;102282.19;6182767;23;20012;-81
2022/07/15 09:44:22;;;;;;;3.60;1.40;;;;;;;28.50;33.87;102285.78;6155677;23;20035;-83
2022/07/15 09:46:59;;;;;;;2.72;1.00;;;;;;;28.39;33.99;102289.38;6147305;23;20068;-84
2022/07/15 09:49:24;;;;;;;8.82;1.95;;;;;;;28.72;33.71;102288.22;6157074;23;20008;-84
2022/07/15 09:51:54;;;;;;;16.13;5.30;;;;;;;28.96;33.35;102280.22;6156799;23;20092;-82
2022/07/15 09:54:22;;;;;;;5.38;1.10;;;;;;;28.88;33.06;102290.63;6181326;23;20032;-83
2022/07/15 09:56:51;;;;;;;2.50;0.98;;;;;;;28.96;32.34;102294.28;6156039;23;20016;-79
2022/07/15 09:59:17;;;;;;;5.60;1.50;;;;;;;29.23;32.00;102294.63;6182330;23;20059;-79
2022/07/15 10:01:47;;;;;;;6.38;2.35;;;;;;;29.35;31.59;102297.03;6155398;23;20008;-80
2022/07/15 10:04:15;;;;;;;2.53;1.10;;;;;;;29.27;31.38;102295.44;6156068;23;20004;-82
2022/07/15 10:06:42;;;;;;;4.05;1.40;;;;;;;29.59;30.85;102288.97;6155975;23;20367;-84
2022/07/15 10:09:09;;;;;;;3.67;1.10;;;;;;;29.76;30.75;102299.34;6180470;23;20013;-83
2022/07/15 10:11:42;;;;;;;3.53;1.63;;;;;;;29.86;30.40;102297.72;6181593;23;20009;-79
2022/07/15 10:14:28;;;;;;;2.67;1.40;;;;;;;29.93;30.30;102294.88;6180753;23;20008;-81
2022/07/15 10:17:15;;;;;;;3.17;1.02;;;;;;;30.05;30.49;102300.03;6180608;23;20434;-75
2022/07/15 10:19:56;;;;;;;3.05;1.20;;;;;;;29.87;30.76;102300.13;6154686;23;20009;-79
2022/07/15 10:23:03;;;;;;;3.45;1.30;;;;;;;30.03;31.20;102294.81;6180719;23;19997;-80
2022/07/15 10:26:06;;;;;;;2.28;0.95;;;;;;;29.94;31.75;102294.47;6090696;23;20016;-81
2022/07/15 10:28:47;;;;;;;2.28;0.85;;;;;;;29.66;31.56;102297.38;6181585;23;20104;-81
2022/07/15 10:31:18;;;;;;;1.90;1.10;;;;;;;29.95;30.70;102300.91;6181688;23;20076;-77
2022/07/15 10:34:03;;;;;;;2.63;1.50;;;;;;;29.62;30.95;102294.56;6183327;23;20028;-78
2022/07/15 10:36:54;;;;;;;3.45;1.33;;;;;;;29.67;30.74;102288.53;6144476;23;20020;-81
2022/07/15 10:39:24;;;;;;;3.30;1.70;;;;;;;30.17;30.19;102282.69;6166384;23;20009;-77
2022/07/15 10:41:58;;;;;;;6.47;1.58;;;;;;;29.95;30.29;102306.53;6167784;23;20005;-78
2022/07/15 10:44:27;;;;;;;3.90;1.27;;;;;;;29.96;30.08;102302.50;6168420;23;20428;-78
2022/07/15 10:47:14;;;;;;;5.88;1.58;;;;;;;30.04;30.57;102298.44;6168250;23;20001;-78
2022/07/15 10:49:42;;;;;;;9.82;1.88;;;;;;;30.25;30.13;102300.38;6168518;23;20041;-78
2022/07/15 10:52:33;;;;;;;8.23;2.67;;;;;;;29.96;30.33;102306.13;6168153;23;20009;-79
2022/07/15 10:55:00;;;;;;;3.85;1.67;;;;;;;29.67;30.39;102302.59;6163195;23;20040;-78
2022/07/15 10:57:41;;;;;;;5.85;2.58;;;;;;;30.07;29.66;102300.41;6141717;23;20012;-78
2022/07/15 11:00:25;;;;;;;3.38;1.65;;;;;;;29.91;29.89;102300.09;6167792;23;20005;-80
2022/07/15 11:03:09;;;;;;;3.05;1.60;;;;;;;30.23;29.27;102294.31;6165811;23;20044;-78
2022/07/15 11:05:59;;;;;;;4.85;1.77;;;;;;;30.29;29.39;102299.13;6166266;23;20027;-78
2022/07/15 11:08:31;;;;;;;3.70;1.50;;;;;;;30.22;30.26;102296.34;6166614;23;20059;-79
2022/07/15 11:10:57;;;;;;;2.63;1.30;;;;;;;30.21;30.39;102306.00;6140073;23;20041;-79
2022/07/15 11:13:33;;;;;;;16.08;4.63;;;;;;;29.99;31.43;102312.94;6166695;23;20016;-78
2022/07/15 11:16:00;;;;;;;4.55;1.40;;;;;;;30.07;30.82;102301.22;6166505;23;20040;-79
2022/07/15 11:18:26;;;;;;;4.93;1.67;;;;;;;29.93;31.36;102304.13;6167161;23;20001;-80
2022/07/15 11:20:52;;;;;;;7.47;2.25;;;;;;;29.99;31.53;102308.09;6167556;23;20058;-80
2022/07/15 11:23:20;;;;;;;8.27;3.08;;;;;;;30.18;31.05;102304.03;6167941;23;20664;-80
2022/07/15 11:25:48;;;;;;;6.68;1.85;;;;;;;30.41;30.80;102314.75;6166650;23;20009;-80
2022/07/15 11:28:17;;;;;;;3.80;1.85;;;;;;;30.46;30.83;102307.91;6166388;23;20009;-79
2022/07/15 11:30:53;;;;;;;4.80;2.05;;;;;;;30.39;30.43;102315.19;6150329;23;20005;-79
2022/07/15 11:33:21;;;;;;;3.40;1.90;;;;;;;30.35;30.27;102311.56;6184687;23;19997;-79
2022/07/15 11:35:53;;;;;;;5.25;2.00;;;;;;;29.99;30.98;102319.38;6184939;23;20016;-79